Time;durP1;ratioP1;P1;durP2;ratioP2;P2;SDS_P1;SDS_P2;PMS_P1;PMS_P2;Temp;Humidity;BMP_temperature;BMP_pressure;BME280_temperature;BME280_humidity;BME280_pressure;Samples;Min_cycle;Max_cycle;Signal;HPM_P1;HPM_P2
2021/08/27 00:02:02;;;;;;;4.97;4.40;;;13.20;99.90;;;;;;5030734;28;20492;-61
2021/08/27 00:04:29;;;;;;;5.20;4.40;;;13.20;99.90;;;;;;5025155;28;20450;-60
2021/08/27 00:06:56;;;;;;;7.53;5.17;;;13.20;99.90;;;;;;5011636;28;20454;-61
2021/08/27 00:09:22;;;;;;;5.93;4.40;;;13.30;99.90;;;;;;5011648;28;20477;-62
2021/08/27 00:11:49;;;;;;;5.67;4.60;;;13.30;99.90;;;;;;5011453;28;20445;-62
2021/08/27 00:14:16;;;;;;;11.73;6.80;;;13.30;99.90;;;;;;5014567;28;20536;-60
2021/08/27 00:16:42;;;;;;;9.23;5.43;;;13.30;99.90;;;;;;5030967;28;20449;-61
2021/08/27 00:19:10;;;;;;;5.93;5.43;;;13.30;99.90;;;;;;5031090;28;20476;-59
2021/08/27 00:21:37;;;;;;;6.00;5.60;;;13.40;99.90;;;;;;5031146;28;20484;-61
2021/08/27 00:24:06;;;;;;;10.17;5.33;;;13.40;99.90;;;;;;5031240;28;20448;-61
2021/08/27 00:26:33;;;;;;;10.03;5.13;;;13.40;99.90;;;;;;5028751;28;20544;-60
2021/08/27 00:29:00;;;;;;;7.70;5.70;;;13.40;99.90;;;;;;5011484;28;20497;-62
2021/08/27 00:31:27;;;;;;;5.30;4.80;;;13.40;99.90;;;;;;5011324;28;20935;-61
2021/08/27 00:33:54;;;;;;;4.97;4.57;;;13.40;99.90;;;;;;5011474;28;20460;-61
2021/08/27 00:36:22;;;;;;;5.43;4.40;;;13.40;99.90;;;;;;5012850;28;20823;-61
2021/08/27 00:38:49;;;;;;;5.50;5.07;;;13.40;99.90;;;;;;5021576;28;20457;-60
2021/08/27 00:41:15;;;;;;;5.00;4.63;;;13.40;99.90;;;;;;5034903;28;20476;-61
2021/08/27 00:43:42;;;;;;;5.70;5.27;;;13.40;99.90;;;;;;5034822;28;20922;-61
2021/08/27 00:46:09;;;;;;;5.47;4.97;;;13.40;99.90;;;;;;5034867;28;20836;-61
2021/08/27 00:48:35;;;;;;;4.73;4.53;;;13.40;99.90;;;;;;5034303;28;20476;-60
2021/08/27 00:51:04;;;;;;;5.90;5.40;;;13.40;99.90;;;;;;5034564;28;20476;-61
2021/08/27 00:53:33;;;;;;;4.93;4.53;;;13.40;99.90;;;;;;5034713;28;20455;-61
2021/08/27 00:56:00;;;;;;;5.13;4.73;;;13.30;99.90;;;;;;5034637;28;20456;-62
2021/08/27 00:58:27;;;;;;;4.63;4.30;;;13.30;99.90;;;;;;5034026;28;20469;-62
2021/08/27 01:00:53;;;;;;;4.20;3.80;;;13.20;99.90;;;;;;5034406;28;20448;-61
2021/08/27 01:03:21;;;;;;;4.53;4.23;;;13.30;99.90;;;;;;5034522;28;20449;-63
2021/08/27 01:05:57;;;;;;;5.17;4.60;;;13.20;99.90;;;;;;5034461;28;20436;-60
2021/08/27 01:08:31;;;;;;;6.60;4.13;;;13.20;99.90;;;;;;5034518;28;20770;-60
2021/08/27 01:11:07;;;;;;;4.30;4.10;;;13.20;99.90;;;;;;5034006;28;20448;-61
2021/08/27 01:13:38;;;;;;;5.70;4.73;;;13.10;99.90;;;;;;5034331;28;20444;-62
2021/08/27 01:16:14;;;;;;;4.60;4.30;;;13.10;99.90;;;;;;5034319;28;20441;-62
2021/08/27 01:18:49;;;;;;;4.07;3.93;;;13.00;99.90;;;;;;5032421;28;20868;-60
2021/08/27 01:21:50;;;;;;;5.47;4.60;;;13.00;99.90;;;;;;5034113;28;20484;-61
2021/08/27 01:24:19;;;;;;;4.67;4.10;;;12.90;99.90;;;;;;5034289;28;20917;-62
2021/08/27 01:26:50;;;;;;;4.73;4.37;;;12.90;99.90;;;;;;5034053;28;20449;-62
2021/08/27 01:29:21;;;;;;;4.33;3.93;;;12.90;99.90;;;;;;5023381;28;20477;-61
2021/08/27 01:31:55;;;;;;;4.30;3.90;;;12.80;99.90;;;;;;5014047;28;20500;-60
2021/08/27 01:34:37;;;;;;;4.00;3.77;;;12.80;99.90;;;;;;5014301;28;20442;-61
2021/08/27 01:37:07;;;;;;;4.50;3.50;;;12.90;99.90;;;;;;5014128;28;20446;-62
2021/08/27 01:39:37;;;;;;;8.53;4.30;;;12.80;99.90;;;;;;5014197;28;20523;-61
2021/08/27 01:42:06;;;;;;;4.23;3.37;;;12.80;99.90;;;;;;5033155;28;20542;-61
2021/08/27 01:44:34;;;;;;;3.80;3.60;;;12.80;99.90;;;;;;5033831;28;20818;-63
2021/08/27 01:47:03;;;;;;;9.53;4.73;;;12.80;99.90;;;;;;5033294;28;20449;-63
2021/08/27 01:49:32;;;;;;;3.70;3.40;;;12.80;99.90;;;;;;5021731;28;20469;-63
2021/08/27 01:52:02;;;;;;;4.30;3.43;;;12.80;99.90;;;;;;5013777;28;20442;-63
2021/08/27 01:54:31;;;;;;;6.53;3.90;;;12.80;99.90;;;;;;5013934;28;20792;-64
2021/08/27 01:56:58;;;;;;;4.40;3.23;;;12.80;99.90;;;;;;5013738;28;20442;-62
2021/08/27 01:59:27;;;;;;;5.00;3.97;;;12.80;99.90;;;;;;5024075;28;20843;-63
2021/08/27 02:01:54;;;;;;;3.30;3.10;;;12.80;99.90;;;;;;5033355;28;20479;-63
2021/08/27 02:04:21;;;;;;;5.37;3.33;;;12.80;99.90;;;;;;5033438;28;20942;-62
2021/08/27 02:06:50;;;;;;;5.03;4.63;;;12.70;99.90;;;;;;5033344;28;20456;-64
2021/08/27 02:09:18;;;;;;;3.73;3.30;;;12.70;99.90;;;;;;5033289;28;20457;-63
2021/08/27 02:11:46;;;;;;;8.43;3.97;;;12.70;99.90;;;;;;5022237;28;20974;-62
2021/08/27 02:14:14;;;;;;;6.00;3.80;;;12.70;99.90;;;;;;5013449;28;20482;-64
2021/08/27 02:16:41;;;;;;;3.87;3.50;;;12.70;99.90;;;;;;5013501;28;20445;-62
2021/08/27 02:19:08;;;;;;;6.43;3.73;;;12.60;99.90;;;;;;5013076;28;20834;-63
2021/08/27 02:21:40;;;;;;;5.67;3.57;;;12.70;99.90;;;;;;5013154;28;20485;-63
2021/08/27 02:24:13;;;;;;;10.77;3.03;;;12.70;99.90;;;;;;5027125;28;20544;-64
2021/08/27 02:26:42;;;;;;;5.23;3.10;;;12.80;99.90;;;;;;5033148;28;20456;-63
2021/08/27 02:29:10;;;;;;;6.63;4.00;;;12.70;99.90;;;;;;5032973;28;20765;-64
2021/08/27 02:31:38;;;;;;;6.03;2.70;;;12.80;99.90;;;;;;5032835;28;20440;-64
2021/08/27 02:34:08;;;;;;;3.77;3.57;;;12.80;99.90;;;;;;5032665;28;20445;-63
2021/08/27 02:36:35;;;;;;;5.00;3.10;;;12.80;99.90;;;;;;5032553;28;20472;-64
2021/08/27 02:39:02;;;;;;;3.87;3.40;;;12.80;99.90;;;;;;5032689;28;20488;-62
2021/08/27 02:41:30;;;;;;;3.30;3.03;;;12.90;99.90;;;;;;5032485;28;20892;-62
2021/08/27 02:43:57;;;;;;;4.63;4.23;;;12.90;99.90;;;;;;5032640;28;20452;-63
2021/08/27 02:46:24;;;;;;;8.10;3.90;;;12.90;99.90;;;;;;5032674;28;20483;-62
2021/08/27 02:48:50;;;;;;;6.23;3.20;;;13.00;99.90;;;;;;5015510;28;20465;-61
2021/08/27 02:51:23;;;;;;;2.90;2.70;;;13.00;99.90;;;;;;5014779;28;20452;-61
2021/08/27 02:53:53;;;;;;;7.13;4.00;;;13.00;99.90;;;;;;5032413;28;20452;-62
2021/08/27 02:56:23;;;;;;;6.30;3.20;;;13.00;99.90;;;;;;5032375;28;20444;-62
2021/08/27 02:58:54;;;;;;;4.93;4.20;;;13.00;99.90;;;;;;5031678;28;20469;-63
2021/08/27 03:01:35;;;;;;;3.90;3.50;;;13.00;99.90;;;;;;5031544;28;20992;-62
2021/08/27 03:04:07;;;;;;;4.90;4.50;;;12.90;99.90;;;;;;5032246;28;21014;-63
2021/08/27 03:06:40;;;;;;;7.73;3.47;;;12.90;99.90;;;;;;5032386;28;20846;-63
2021/08/27 03:09:10;;;;;;;8.33;3.93;;;12.90;99.90;;;;;;5032208;28;20480;-64
2021/08/27 03:11:42;;;;;;;10.83;3.43;;;12.90;99.90;;;;;;5031698;28;20445;-62
2021/08/27 03:14:15;;;;;;;8.80;3.70;;;12.90;99.90;;;;;;5032149;28;20456;-62
2021/08/27 03:16:46;;;;;;;3.70;3.50;;;13.00;99.90;;;;;;5032190;28;20452;-61
2021/08/27 03:19:19;;;;;;;3.53;3.20;;;13.00;99.90;;;;;;5031851;28;20477;-62
2021/08/27 03:21:49;;;;;;;5.83;3.07;;;13.00;99.90;;;;;;5031871;28;20491;-63
2021/08/27 03:24:20;;;;;;;4.73;4.33;;;13.00;99.90;;;;;;5020738;28;20954;-61
2021/08/27 03:26:51;;;;;;;4.00;3.53;;;13.00;99.90;;;;;;5012304;28;20450;-62
2021/08/27 03:29:22;;;;;;;3.20;2.90;;;13.10;99.90;;;;;;5012198;28;20481;-63
2021/08/27 03:31:50;;;;;;;4.60;3.33;;;13.10;99.90;;;;;;5012007;28;20445;-62
2021/08/27 03:34:17;;;;;;;3.10;2.90;;;13.10;99.90;;;;;;5012153;28;20815;-61
2021/08/27 03:36:45;;;;;;;4.90;3.70;;;13.10;99.90;;;;;;5012369;28;20465;-61
2021/08/27 03:39:12;;;;;;;3.87;3.17;;;13.10;99.90;;;;;;5011974;28;20462;-63
2021/08/27 03:41:41;;;;;;;7.23;4.13;;;13.10;99.90;;;;;;5011738;28;20449;-62
2021/08/27 03:44:08;;;;;;;4.40;3.83;;;13.10;99.90;;;;;;5012128;28;20446;-63
2021/08/27 03:46:38;;;;;;;3.53;3.20;;;13.10;99.90;;;;;;5011998;28;20446;-61
2021/08/27 03:49:06;;;;;;;3.43;3.17;;;13.10;99.90;;;;;;5011662;28;20458;-61
2021/08/27 03:51:33;;;;;;;5.27;3.70;;;13.00;99.90;;;;;;5011714;28;20450;-62
2021/08/27 03:54:01;;;;;;;5.27;4.00;;;13.00;99.90;;;;;;5029137;28;20474;-62
2021/08/27 03:56:28;;;;;;;4.17;3.30;;;13.00;99.90;;;;;;5031542;28;21060;-62
2021/08/27 03:58:56;;;;;;;5.47;3.63;;;13.00;99.90;;;;;;5031502;28;20464;-61
2021/08/27 04:01:24;;;;;;;6.97;6.27;;;13.10;99.90;;;;;;5030620;28;20515;-63
2021/08/27 04:03:52;;;;;;;3.93;3.60;;;13.10;99.90;;;;;;5031521;28;20570;-62
2021/08/27 04:06:19;;;;;;;3.57;3.23;;;13.10;99.90;;;;;;5031396;28;20445;-64
2021/08/27 04:08:46;;;;;;;4.13;3.80;;;13.10;99.90;;;;;;5031568;28;20473;-63
2021/08/27 04:11:17;;;;;;;10.20;4.50;;;13.20;99.90;;;;;;5034438;28;20824;-63
2021/08/27 04:13:44;;;;;;;4.97;4.50;;;13.20;99.90;;;;;;5035228;28;20453;-61
2021/08/27 04:16:11;;;;;;;5.90;3.07;;;13.20;99.90;;;;;;5035457;28;21021;-62
2021/08/27 04:18:38;;;;;;;3.83;3.50;;;13.20;99.90;;;;;;5035254;28;20479;-63
2021/08/27 04:21:06;;;;;;;7.50;3.30;;;13.20;99.90;;;;;;5023439;28;20457;-62
2021/08/27 04:23:33;;;;;;;4.27;3.30;;;13.20;99.90;;;;;;5015506;28;20949;-63
2021/08/27 04:26:00;;;;;;;9.33;4.57;;;13.20;99.90;;;;;;5015507;28;20449;-62
2021/08/27 04:28:27;;;;;;;14.30;3.90;;;13.20;99.90;;;;;;5015463;28;20469;-61
2021/08/27 04:30:53;;;;;;;7.73;4.10;;;13.20;99.90;;;;;;5024777;28;20543;-62
2021/08/27 04:33:20;;;;;;;6.17;3.63;;;13.20;99.90;;;;;;5035101;28;20437;-63
2021/08/27 04:35:47;;;;;;;8.83;4.60;;;13.20;99.90;;;;;;5032021;28;20445;-62
2021/08/27 04:38:15;;;;;;;4.43;4.03;;;13.20;99.90;;;;;;5032290;28;20804;-62
2021/08/27 04:40:42;;;;;;;3.67;3.47;;;13.20;99.90;;;;;;5020395;28;20446;-63
2021/08/27 04:43:08;;;;;;;3.77;3.50;;;13.20;99.90;;;;;;5033781;28;20568;-63
2021/08/27 04:45:35;;;;;;;4.80;4.40;;;13.20;99.90;;;;;;5034784;28;20452;-62
2021/08/27 04:48:02;;;;;;;9.33;4.10;;;13.30;99.90;;;;;;5034627;28;20453;-61
2021/08/27 04:50:28;;;;;;;3.77;3.47;;;13.30;99.90;;;;;;5034182;28;20481;-63
2021/08/27 04:52:55;;;;;;;4.27;3.87;;;13.30;99.90;;;;;;5034651;28;20468;-63
2021/08/27 04:55:23;;;;;;;5.87;3.77;;;13.30;99.90;;;;;;5027946;28;20453;-62
2021/08/27 04:57:50;;;;;;;4.03;3.80;;;13.30;99.90;;;;;;5014834;28;20805;-63
2021/08/27 05:00:17;;;;;;;4.93;3.83;;;13.30;99.90;;;;;;5014566;28;20465;-62
2021/08/27 05:02:44;;;;;;;4.77;4.43;;;13.30;99.90;;;;;;5014483;28;20488;-63
2021/08/27 05:05:12;;;;;;;11.53;4.80;;;13.30;99.90;;;;;;5014669;28;20448;-63
2021/08/27 05:07:39;;;;;;;5.40;4.50;;;13.30;99.90;;;;;;5014696;28;20820;-62
2021/08/27 05:10:06;;;;;;;11.63;6.47;;;13.30;99.90;;;;;;5014400;28;20838;-62
2021/08/27 05:12:34;;;;;;;4.47;4.10;;;13.30;99.90;;;;;;5014438;28;20442;-62
2021/08/27 05:15:02;;;;;;;4.80;4.40;;;13.40;99.90;;;;;;5014545;28;20874;-62
2021/08/27 05:17:28;;;;;;;7.23;4.50;;;13.40;99.90;;;;;;5014553;28;20438;-62
2021/08/27 05:19:55;;;;;;;4.90;4.50;;;13.40;99.90;;;;;;5045667;23;20486;-66
2021/08/27 05:22:22;;;;;;;9.20;5.40;;;13.50;99.90;;;;;;5027674;28;20480;-65
2021/08/27 05:24:48;;;;;;;9.47;7.50;;;13.50;99.90;;;;;;5034733;28;20441;-64
2021/08/27 05:27:15;;;;;;;10.07;7.23;;;13.60;99.90;;;;;;5034250;28;20449;-64
2021/08/27 05:29:43;;;;;;;8.73;5.53;;;13.60;99.90;;;;;;5034140;28;20468;-66
2021/08/27 05:32:10;;;;;;;5.13;4.70;;;13.60;99.90;;;;;;5033747;28;20448;-66
2021/08/27 05:34:37;;;;;;;5.73;5.07;;;13.70;99.90;;;;;;5034150;28;20449;-65
2021/08/27 05:37:06;;;;;;;5.10;4.80;;;13.70;99.90;;;;;;5033928;28;20441;-66
2021/08/27 05:39:33;;;;;;;5.93;5.53;;;13.70;99.90;;;;;;5033790;28;20465;-65
2021/08/27 05:42:00;;;;;;;5.30;4.90;;;13.80;99.90;;;;;;5033602;28;20544;-65
2021/08/27 05:44:27;;;;;;;5.83;5.40;;;13.80;99.90;;;;;;5033497;28;20480;-65
2021/08/27 05:46:56;;;;;;;6.87;5.70;;;13.90;99.90;;;;;;5033827;28;20823;-65
2021/08/27 05:49:23;;;;;;;9.13;5.67;;;13.90;99.90;;;;;;5033605;28;20465;-65
2021/08/27 05:51:50;;;;;;;7.83;6.27;;;13.90;99.90;;;;;;5033232;28;20449;-65
2021/08/27 05:54:17;;;;;;;6.87;5.57;;;13.80;99.90;;;;;;5033432;28;20945;-66
2021/08/27 05:56:45;;;;;;;5.17;4.97;;;13.80;99.90;;;;;;5033576;28;20445;-64
2021/08/27 05:59:11;;;;;;;5.70;5.40;;;13.90;99.90;;;;;;5033343;28;20464;-65
2021/08/27 06:01:38;;;;;;;6.63;6.03;;;14.00;99.90;;;;;;5033344;28;20437;-65
2021/08/27 06:04:06;;;;;;;6.70;6.40;;;14.10;99.90;;;;;;5033385;28;20479;-65
2021/08/27 06:06:34;;;;;;;7.37;6.50;;;14.10;99.90;;;;;;5033201;28;20506;-66
2021/08/27 06:09:00;;;;;;;8.20;7.70;;;14.20;99.90;;;;;;5033248;28;20477;-64
2021/08/27 06:11:27;;;;;;;10.00;7.87;;;14.20;99.90;;;;;;5032921;28;20825;-66
2021/08/27 06:13:54;;;;;;;7.80;7.07;;;14.30;99.90;;;;;;5033254;28;20437;-66
2021/08/27 06:16:20;;;;;;;7.97;7.17;;;14.30;99.90;;;;;;5033198;28;20445;-65
2021/08/27 06:18:47;;;;;;;8.63;8.17;;;14.30;99.90;;;;;;5032987;28;20469;-64
2021/08/27 06:21:15;;;;;;;10.33;9.33;;;14.40;99.90;;;;;;5032935;28;20452;-66
2021/08/27 06:23:42;;;;;;;10.27;9.40;;;14.40;99.90;;;;;;5032836;28;20572;-65
2021/08/27 06:26:08;;;;;;;9.03;8.30;;;14.40;99.90;;;;;;5032794;28;20441;-65
2021/08/27 06:28:35;;;;;;;11.50;10.60;;;14.50;99.90;;;;;;5032850;28;20809;-65
2021/08/27 06:31:02;;;;;;;9.17;8.67;;;14.60;99.90;;;;;;5032704;28;20579;-66
2021/08/27 06:33:30;;;;;;;11.80;8.70;;;14.70;99.90;;;;;;5032753;28;20445;-66
2021/08/27 06:35:56;;;;;;;9.90;9.10;;;14.80;99.90;;;;;;5032629;28;20455;-65
2021/08/27 06:38:25;;;;;;;9.63;9.13;;;14.90;99.90;;;;;;5032508;28;20449;-66
2021/08/27 06:40:54;;;;;;;9.87;9.37;;;15.10;99.90;;;;;;5032746;28;20445;-65
2021/08/27 06:43:22;;;;;;;10.00;9.40;;;15.20;99.90;;;;;;5032464;28;20912;-65
2021/08/27 06:45:49;;;;;;;10.90;10.17;;;15.10;99.90;;;;;;5032553;28;20437;-65
2021/08/27 06:48:16;;;;;;;11.20;10.50;;;15.30;99.90;;;;;;5032164;28;20441;-65
2021/08/27 06:50:42;;;;;;;12.00;10.77;;;15.30;99.90;;;;;;5031697;28;20465;-65
2021/08/27 06:53:09;;;;;;;10.67;10.07;;;15.30;99.90;;;;;;5032199;28;20437;-65
2021/08/27 06:55:37;;;;;;;12.03;10.83;;;15.50;99.90;;;;;;5032329;28;20918;-65
2021/08/27 06:58:04;;;;;;;11.67;10.80;;;15.50;99.90;;;;;;5032275;28;20965;-65
2021/08/27 07:00:32;;;;;;;11.07;10.20;;;15.60;99.90;;;;;;5032178;28;20472;-65
2021/08/27 07:02:59;;;;;;;13.37;12.30;;;15.50;99.90;;;;;;5031914;28;20484;-65
2021/08/27 07:05:26;;;;;;;11.70;10.80;;;15.50;99.90;;;;;;5032057;28;20468;-65
2021/08/27 07:07:53;;;;;;;11.43;10.77;;;15.70;99.90;;;;;;5032163;28;20441;-65
2021/08/27 07:10:19;;;;;;;12.10;11.40;;;15.60;99.90;;;;;;5032156;28;20473;-64
2021/08/27 07:12:48;;;;;;;12.00;11.23;;;15.60;99.90;;;;;;5032141;28;20452;-65
2021/08/27 07:15:16;;;;;;;11.60;11.00;;;15.60;99.90;;;;;;5032105;28;20535;-66
2021/08/27 07:17:43;;;;;;;12.43;11.77;;;15.70;99.90;;;;;;5031998;28;20448;-65
2021/08/27 07:20:11;;;;;;;13.33;12.43;;;15.60;99.90;;;;;;5031730;28;20481;-66
2021/08/27 07:22:39;;;;;;;12.20;11.43;;;15.50;99.90;;;;;;5031602;28;20472;-66
2021/08/27 07:25:07;;;;;;;12.37;11.20;;;15.50;99.90;;;;;;5031768;28;20483;-66
2021/08/27 07:27:33;;;;;;;12.60;12.00;;;15.60;99.90;;;;;;5031902;28;20445;-66
2021/08/27 07:30:01;;;;;;;11.97;11.17;;;15.70;99.90;;;;;;5031781;28;20531;-66
2021/08/27 07:32:28;;;;;;;11.60;11.00;;;15.50;99.90;;;;;;5031509;28;20668;-66
2021/08/27 07:34:55;;;;;;;11.93;11.00;;;15.50;99.90;;;;;;5032047;28;20445;-66
2021/08/27 07:37:21;;;;;;;11.17;10.57;;;15.60;99.90;;;;;;5031756;28;20455;-65
2021/08/27 07:39:48;;;;;;;11.93;10.90;;;15.60;99.90;;;;;;5031680;28;20464;-65
2021/08/27 07:42:15;;;;;;;12.13;11.33;;;15.70;99.90;;;;;;5031504;28;20951;-66
2021/08/27 07:44:41;;;;;;;11.67;10.87;;;15.80;99.90;;;;;;5031307;28;20484;-66
2021/08/27 07:47:09;;;;;;;12.40;11.60;;;15.90;99.90;;;;;;5031583;28;20851;-65
2021/08/27 07:49:36;;;;;;;12.97;11.83;;;15.90;99.90;;;;;;5031488;28;20467;-65
2021/08/27 07:52:03;;;;;;;12.03;11.43;;;16.00;99.90;;;;;;5031357;28;20445;-65
2021/08/27 07:54:31;;;;;;;12.17;11.47;;;16.00;99.90;;;;;;5031462;28;20464;-64
2021/08/27 07:56:57;;;;;;;13.07;12.17;;;15.90;99.90;;;;;;5031521;28;20441;-63
2021/08/27 07:59:24;;;;;;;13.00;12.40;;;16.00;99.90;;;;;;5031403;28;20834;-64
2021/08/27 08:01:52;;;;;;;12.83;11.90;;;16.20;99.90;;;;;;5031247;28;20453;-63
2021/08/27 08:04:20;;;;;;;13.30;12.60;;;16.30;99.90;;;;;;5031152;28;20480;-63
2021/08/27 08:06:47;;;;;;;13.50;12.60;;;16.60;99.90;;;;;;5031353;28;20460;-62
2021/08/27 08:09:14;;;;;;;13.73;13.00;;;16.50;99.90;;;;;;5031404;28;20468;-63
2021/08/27 08:11:40;;;;;;;13.90;13.10;;;16.70;99.90;;;;;;5031112;28;20452;-67
2021/08/27 08:14:07;;;;;;;14.67;13.50;;;16.90;99.90;;;;;;5031371;28;20798;-63
2021/08/27 08:16:34;;;;;;;14.37;13.77;;;17.10;99.90;;;;;;5031272;28;20437;-63
2021/08/27 08:19:00;;;;;;;14.37;13.47;;;17.20;99.90;;;;;;5031082;28;20473;-63
2021/08/27 08:21:28;;;;;;;14.30;13.50;;;17.30;99.90;;;;;;5031020;28;20452;-64
2021/08/27 08:23:56;;;;;;;14.07;13.40;;;17.40;99.90;;;;;;5031179;28;20488;-64
2021/08/27 08:26:24;;;;;;;13.83;13.33;;;17.50;99.90;;;;;;5031194;28;20460;-63
2021/08/27 08:28:52;;;;;;;13.70;13.20;;;17.60;99.90;;;;;;5031138;28;20476;-63
2021/08/27 08:31:20;;;;;;;14.77;13.87;;;17.70;99.90;;;;;;5031140;28;20445;-62
2021/08/27 08:33:48;;;;;;;14.27;13.60;;;17.60;99.90;;;;;;5031130;28;20449;-64
2021/08/27 08:36:15;;;;;;;14.27;13.47;;;17.70;99.90;;;;;;5031281;28;20810;-64
2021/08/27 08:38:44;;;;;;;13.50;13.00;;;17.70;99.90;;;;;;5031017;28;20522;-64
2021/08/27 08:41:11;;;;;;;14.87;13.97;;;17.70;99.90;;;;;;5030837;28;20448;-63
2021/08/27 08:43:38;;;;;;;14.23;13.53;;;17.60;99.90;;;;;;5030988;28;20487;-64
2021/08/27 08:46:05;;;;;;;14.67;13.90;;;17.80;99.90;;;;;;5030994;28;20448;-64
2021/08/27 08:48:34;;;;;;;14.57;13.90;;;18.20;99.90;;;;;;5031153;28;20444;-63
2021/08/27 08:51:02;;;;;;;14.33;13.83;;;18.50;99.90;;;;;;5030951;28;20449;-63
2021/08/27 08:53:31;;;;;;;15.07;14.37;;;18.50;99.90;;;;;;5031059;28;20881;-62
2021/08/27 08:55:59;;;;;;;15.23;14.50;;;18.70;99.90;;;;;;5031191;28;20532;-63
2021/08/27 08:58:26;;;;;;;14.93;14.23;;;18.90;99.90;;;;;;5034008;28;20452;-64
2021/08/27 09:00:53;;;;;;;14.87;14.03;;;18.30;99.90;;;;;;5034541;28;20441;-64
2021/08/27 09:03:20;;;;;;;15.13;14.50;;;17.80;99.90;;;;;;5034392;28;20944;-62
2021/08/27 09:05:48;;;;;;;14.03;13.33;;;17.50;99.90;;;;;;5034423;28;20460;-67
2021/08/27 09:08:16;;;;;;;14.80;13.80;;;17.30;99.90;;;;;;5034482;28;20449;-65
2021/08/27 09:10:45;;;;;;;14.07;13.37;;;17.40;99.90;;;;;;5034265;28;20565;-66
2021/08/27 09:13:13;;;;;;;15.40;14.17;;;17.60;99.90;;;;;;5034167;28;20849;-66
2021/08/27 09:15:39;;;;;;;14.67;13.97;;;17.70;99.90;;;;;;5034426;28;20449;-65
2021/08/27 09:18:09;;;;;;;14.83;14.07;;;17.70;99.90;;;;;;5034170;28;20456;-64
2021/08/27 09:20:37;;;;;;;14.63;14.03;;;17.60;99.90;;;;;;5034100;28;20484;-65
2021/08/27 09:23:05;;;;;;;14.53;13.73;;;17.70;99.90;;;;;;5034038;28;20433;-65
2021/08/27 09:25:33;;;;;;;14.33;13.83;;;18.10;99.90;;;;;;5034126;28;21000;-65
2021/08/27 09:28:06;;;;;;;14.47;13.87;;;18.60;99.90;;;;;;5034233;28;20445;-66
2021/08/27 09:30:37;;;;;;;15.33;14.53;;;19.10;99.90;;;;;;5034077;28;20465;-65
2021/08/27 09:33:12;;;;;;;15.10;14.50;;;19.10;99.90;;;;;;5033478;28;20935;-66
2021/08/27 09:35:40;;;;;;;16.20;15.30;;;19.00;99.90;;;;;;5033826;28;20527;-65
2021/08/27 09:38:15;;;;;;;15.73;14.60;;;19.30;99.90;;;;;;5033894;28;20447;-66
2021/08/27 09:40:43;;;;;;;15.73;14.97;;;19.30;99.90;;;;;;5033909;28;20536;-65
2021/08/27 09:43:09;;;;;;;9.00;8.40;;;19.00;99.90;;;;;;5033615;28;20819;-65
2021/08/27 09:45:41;;;;;;;15.23;13.80;;;18.70;99.90;;;;;;5033633;28;20488;-65
2021/08/27 09:48:10;;;;;;;15.03;14.23;;;18.00;99.90;;;;;;5033709;28;20453;-64
2021/08/27 09:50:39;;;;;;;14.83;13.93;;;17.60;99.90;;;;;;5033675;28;20468;-65
2021/08/27 09:53:07;;;;;;;14.93;14.00;;;17.40;99.90;;;;;;5033578;28;20444;-64
2021/08/27 09:55:35;;;;;;;14.27;13.30;;;17.50;99.90;;;;;;5033566;28;20448;-64
2021/08/27 09:58:04;;;;;;;15.40;14.60;;;17.90;99.90;;;;;;5033654;28;20448;-65
2021/08/27 10:00:35;;;;;;;15.63;14.60;;;18.40;99.90;;;;;;5033418;28;20465;-65
2021/08/27 10:03:17;;;;;;;14.83;14.23;;;18.60;99.90;;;;;;5033252;28;20953;-66
2021/08/27 10:05:43;;;;;;;15.43;14.60;;;18.70;99.90;;;;;;5033361;28;20481;-65
2021/08/27 10:08:16;;;;;;;16.47;15.33;;;18.50;99.90;;;;;;5032994;28;20451;-66
2021/08/27 10:10:43;;;;;;;15.80;15.10;;;18.30;99.90;;;;;;5033335;28;20468;-65
2021/08/27 10:13:11;;;;;;;14.77;14.17;;;18.20;99.90;;;;;;5033083;28;20441;-65
2021/08/27 10:15:38;;;;;;;15.90;15.20;;;18.20;99.90;;;;;;5033108;28;20437;-63
2021/08/27 10:18:09;;;;;;;15.50;14.83;;;18.50;99.90;;;;;;5033057;28;20939;-65
2021/08/27 10:20:37;;;;;;;15.87;15.13;;;18.80;99.90;;;;;;5032980;28;20480;-65
2021/08/27 10:23:06;;;;;;;15.63;15.00;;;19.20;99.90;;;;;;5032946;28;20452;-66
2021/08/27 10:25:34;;;;;;;16.63;15.73;;;19.70;99.90;;;;;;5033000;28;20481;-64
2021/08/27 10:28:01;;;;;;;16.60;15.80;;;19.90;99.90;;;;;;5033022;28;20463;-66
2021/08/27 10:31:02;;;;;;;16.70;16.00;;;20.20;99.90;;;;;;5032831;28;20468;-65
2021/08/27 10:33:57;;;;;;;18.10;16.90;;;20.70;99.90;;;;;;5031381;28;20466;-63
2021/08/27 10:36:57;;;;;;;17.30;16.60;;;21.30;99.90;;;;;;5023509;28;20531;-65
2021/08/27 10:39:36;;;;;;;17.23;16.53;;;20.70;99.90;;;;;;5032623;28;20465;-65
2021/08/27 10:42:03;;;;;;;17.30;16.40;;;20.60;99.90;;;;;;5032440;28;20472;-66
2021/08/27 10:44:48;;;;;;;18.73;17.60;;;20.50;99.90;;;;;;5032487;28;20488;-65
2021/08/27 10:47:15;;;;;;;17.63;16.63;;;20.20;99.90;;;;;;5032620;28;20941;-63
2021/08/27 10:49:58;;;;;;;17.50;16.80;;;20.40;99.90;;;;;;5032614;28;20846;-66
2021/08/27 10:52:27;;;;;;;17.17;16.47;;;20.90;99.90;;;;;;5032442;28;20831;-66
2021/08/27 10:55:11;;;;;;;17.47;16.77;;;21.20;99.90;;;;;;5032519;28;20437;-63
2021/08/27 10:58:02;;;;;;;18.23;17.43;;;21.10;99.90;;;;;;5032511;28;20445;-63
2021/08/27 11:00:40;;;;;;;21.23;20.20;;;21.40;99.90;;;;;;5029873;28;21096;-63
2021/08/27 11:03:08;;;;;;;17.70;17.00;;;20.80;99.90;;;;;;5032045;28;20476;-62
2021/08/27 11:05:39;;;;;;;17.40;16.60;;;20.50;99.90;;;;;;5032214;28;20843;-63
2021/08/27 11:08:09;;;;;;;18.00;17.17;;;20.40;99.90;;;;;;5032184;28;20453;-63
2021/08/27 11:10:40;;;;;;;17.10;16.00;;;19.90;99.90;;;;;;5032202;28;20469;-63
2021/08/27 11:13:13;;;;;;;16.40;15.70;;;19.60;99.90;;;;;;5031861;28;20449;-63
2021/08/27 11:15:41;;;;;;;17.50;16.60;;;19.60;99.90;;;;;;5032176;28;20497;-65
2021/08/27 11:18:21;;;;;;;17.43;16.50;;;19.60;99.90;;;;;;5032020;28;20516;-63
2021/08/27 11:20:50;;;;;;;17.53;16.63;;;19.50;99.90;;;;;;5031813;28;20456;-65
2021/08/27 11:23:18;;;;;;;19.77;18.70;;;19.80;99.90;;;;;;5031743;28;20449;-66
2021/08/27 11:25:59;;;;;;;17.73;16.93;;;20.80;99.90;;;;;;5031833;28;20477;-67
2021/08/27 11:28:27;;;;;;;18.30;17.60;;;20.80;99.90;;;;;;5031776;28;20459;-64
2021/08/27 11:31:05;;;;;;;18.20;17.50;;;20.60;99.90;;;;;;5031641;28;20452;-66
2021/08/27 11:33:54;;;;;;;17.53;16.47;;;19.90;99.90;;;;;;5031781;28;20456;-65
2021/08/27 11:36:23;;;;;;;17.27;16.37;;;19.90;99.90;;;;;;5031756;28;20955;-65
2021/08/27 11:38:58;;;;;;;17.03;16.13;;;19.60;99.90;;;;;;5031640;28;20560;-65
2021/08/27 11:41:26;;;;;;;17.13;16.53;;;19.40;99.90;;;;;;5031562;28;20929;-66
2021/08/27 11:44:06;;;;;;;19.63;18.83;;;21.10;99.90;;;;;;5031639;28;20512;-66
2021/08/27 11:46:34;;;;;;;20.40;19.50;;;24.00;99.90;;;;;;5031703;28;20854;-64
2021/08/27 11:49:11;;;;;;;20.70;19.70;;;26.60;94.60;;;;;;5031647;28;20463;-64
2021/08/27 11:51:46;;;;;;;22.50;21.20;;;29.30;75.60;;;;;;5031509;28;20448;-64
2021/08/27 11:54:21;;;;;;;20.90;20.00;;;27.20;68.40;;;;;;5031568;28;20452;-63
2021/08/27 11:56:52;;;;;;;19.90;18.97;;;24.40;76.10;;;;;;5031543;28;20502;-66
2021/08/27 11:59:22;;;;;;;19.70;18.70;;;21.90;96.00;;;;;;5031431;28;20519;-65
2021/08/27 12:01:48;;;;;;;19.63;18.63;;;20.40;99.90;;;;;;5031083;28;20445;-65
2021/08/27 12:04:28;;;;;;;21.30;19.90;;;19.50;99.90;;;;;;5031430;28;20448;-64
2021/08/27 12:07:06;;;;;;;19.37;18.50;;;18.80;99.90;;;;;;5031414;28;20460;-64
2021/08/27 12:09:33;;;;;;;19.20;17.87;;;18.30;99.90;;;;;;5031232;28;20461;-65
2021/08/27 12:12:00;;;;;;;16.43;15.80;;;18.30;99.90;;;;;;5031131;28;20452;-65
2021/08/27 12:14:51;;;;;;;17.53;16.37;;;18.70;99.90;;;;;;5031329;28;20468;-66
2021/08/27 12:17:22;;;;;;;18.17;17.43;;;19.10;99.90;;;;;;5031442;28;20437;-65
2021/08/27 12:19:49;;;;;;;20.43;18.70;;;21.00;99.90;;;;;;5031125;28;20483;-66
2021/08/27 12:22:18;;;;;;;20.23;19.03;;;23.30;99.90;;;;;;5031053;28;20452;-65
2021/08/27 12:24:46;;;;;;;20.90;20.10;;;26.10;99.90;;;;;;5031162;28;20874;-63
2021/08/27 12:27:14;;;;;;;21.27;20.20;;;26.10;97.90;;;;;;5031296;28;20902;-64
2021/08/27 12:29:41;;;;;;;20.23;19.43;;;24.70;96.40;;;;;;5031088;28;20468;-63
2021/08/27 12:32:13;;;;;;;20.00;19.30;;;24.30;99.90;;;;;;5033567;28;20476;-64
2021/08/27 12:34:43;;;;;;;19.80;19.00;;;24.80;98.60;;;;;;5035063;28;20444;-63
2021/08/27 12:37:10;;;;;;;20.20;19.40;;;26.20;96.90;;;;;;5035049;28;20812;-62
2021/08/27 12:39:39;;;;;;;19.50;18.83;;;25.80;92.80;;;;;;5034918;28;20476;-63
2021/08/27 12:42:16;;;;;;;20.30;19.50;;;24.90;93.70;;;;;;5034733;28;20452;-63
2021/08/27 12:45:00;;;;;;;19.20;18.50;;;24.20;96.70;;;;;;5034954;28;20476;-66
2021/08/27 12:47:35;;;;;;;20.97;20.10;;;23.80;97.70;;;;;;5034784;28;20456;-66